createdAt,value
2018-09-30T00:02:13.876Z,12.20
2018-09-30T00:07:17.595Z,12.10
2018-09-30T00:12:21.346Z,12.10
2018-09-30T00:17:25.071Z,12.00
2018-09-30T00:22:28.772Z,12.00
2018-09-30T00:27:32.505Z,12.00
2018-09-30T00:32:36.251Z,11.90
2018-09-30T00:37:39.964Z,11.90
2018-09-30T00:42:43.675Z,11.80
2018-09-30T00:47:47.432Z,11.80
2018-09-30T00:52:51.247Z,11.80
2018-09-30T00:57:54.947Z,11.80
2018-09-30T01:02:58.699Z,11.70
2018-09-30T01:08:02.407Z,11.70
2018-09-30T01:13:06.179Z,11.60
2018-09-30T01:18:09.927Z,11.60
2018-09-30T01:23:13.675Z,11.60
2018-09-30T01:28:17.407Z,11.60
2018-09-30T01:33:21.231Z,11.50
2018-09-30T01:38:24.975Z,11.50
2018-09-30T01:43:28.687Z,11.40
2018-09-30T01:48:32.491Z,11.40
2018-09-30T01:53:36.241Z,11.30
2018-09-30T01:58:39.955Z,11.30
2018-09-30T02:03:53.376Z,11.30
2018-09-30T02:08:57.083Z,11.30
2018-09-30T02:14:00.785Z,11.30
2018-09-30T02:19:04.503Z,11.20
2018-09-30T02:24:08.218Z,11.20
2018-09-30T02:29:11.906Z,11.20
2018-09-30T02:34:15.614Z,11.20
2018-09-30T02:39:19.295Z,11.20
2018-09-30T02:44:23.018Z,11.20
2018-09-30T02:49:26.707Z,11.20
2018-09-30T02:54:30.419Z,11.10
2018-09-30T02:59:34.131Z,11.10
2018-09-30T03:04:37.867Z,11.10
2018-09-30T03:09:42.997Z,11.10
2018-09-30T03:14:46.700Z,11.10
2018-09-30T03:19:50.398Z,11.00
2018-09-30T03:24:54.103Z,11.00
2018-09-30T03:29:57.834Z,11.00
2018-09-30T03:35:01.555Z,11.00
2018-09-30T03:40:05.245Z,11.00
2018-09-30T03:45:08.947Z,10.90
2018-09-30T03:50:12.654Z,10.90
2018-09-30T03:55:16.431Z,10.90
2018-09-30T04:00:20.162Z,10.90
2018-09-30T04:05:23.858Z,10.90
2018-09-30T04:10:27.754Z,10.90
2018-09-30T04:15:31.478Z,10.80
2018-09-30T04:20:35.247Z,10.80
2018-09-30T04:25:38.954Z,10.70
2018-09-30T04:30:42.684Z,10.70
2018-09-30T04:35:46.646Z,10.60
2018-09-30T04:40:50.355Z,10.50
2018-09-30T04:45:54.042Z,10.40
2018-09-30T04:50:57.735Z,10.30
2018-09-30T04:56:01.452Z,10.30
2018-09-30T05:01:05.146Z,10.20
2018-09-30T05:06:08.875Z,10.20
2018-09-30T05:11:12.566Z,10.20
2018-09-30T05:16:16.290Z,10.10
2018-09-30T05:21:20.142Z,10.10
2018-09-30T05:26:23.833Z,10.10
2018-09-30T05:31:27.535Z,10.10
2018-09-30T05:36:31.222Z,10.20
2018-09-30T05:41:34.941Z,10.10
2018-09-30T05:46:38.971Z,10.10
2018-09-30T05:51:42.674Z,10.10
2018-09-30T05:56:46.450Z,10.10
2018-09-30T06:01:50.170Z,10.10
2018-09-30T06:06:53.886Z,10.20
2018-09-30T06:11:57.590Z,10.20
2018-09-30T06:17:01.351Z,10.20
2018-09-30T06:22:05.059Z,10.30
2018-09-30T06:27:08.833Z,10.30
2018-09-30T06:32:12.541Z,10.40
2018-09-30T06:37:16.274Z,10.50
2018-09-30T06:42:19.938Z,10.60
2018-09-30T06:47:23.662Z,10.70
2018-09-30T06:52:27.362Z,10.80
2018-09-30T06:57:31.058Z,11.00
2018-09-30T07:02:34.771Z,11.00
2018-09-30T07:07:38.498Z,11.10
2018-09-30T07:12:42.224Z,11.20
2018-09-30T07:17:45.906Z,11.30
2018-09-30T07:22:49.708Z,11.40
2018-09-30T07:27:53.371Z,11.50
2018-09-30T07:32:57.079Z,11.60
2018-09-30T07:38:00.795Z,11.70
2018-09-30T07:43:04.507Z,11.80
2018-09-30T07:48:08.258Z,11.90
2018-09-30T07:53:11.979Z,12.00
2018-09-30T07:58:15.710Z,12.10
2018-09-30T08:03:19.422Z,12.20
2018-09-30T08:08:23.110Z,12.40
2018-09-30T08:13:26.812Z,12.60
2018-09-30T08:18:30.510Z,12.70
2018-09-30T08:23:34.274Z,12.90
2018-09-30T08:28:37.990Z,13.00
2018-09-30T08:33:41.707Z,13.10
2018-09-30T08:38:45.389Z,13.30
2018-09-30T08:43:49.233Z,13.50
2018-09-30T08:48:52.878Z,13.60
2018-09-30T08:53:56.611Z,13.80
2018-09-30T08:59:00.300Z,14.00
2018-09-30T09:04:04.015Z,14.10
2018-09-30T09:09:09.742Z,14.30
2018-09-30T09:14:13.526Z,14.50
2018-09-30T09:19:17.246Z,14.60
2018-09-30T09:24:20.966Z,14.70
2018-09-30T09:29:24.674Z,14.90
2018-09-30T09:34:28.369Z,15.20
2018-09-30T09:39:32.146Z,15.40
2018-09-30T09:44:35.954Z,15.60
2018-09-30T09:49:39.678Z,15.70
2018-09-30T09:54:43.381Z,15.90
2018-09-30T09:59:47.363Z,16.00
2018-09-30T10:04:51.090Z,16.20
2018-09-30T10:09:54.826Z,16.30
2018-09-30T10:14:58.539Z,16.40
2018-09-30T10:20:02.286Z,16.60
2018-09-30T10:25:05.978Z,16.80
2018-09-30T10:30:09.730Z,17.00
2018-09-30T10:35:13.439Z,17.20
2018-09-30T10:40:17.130Z,17.40
2018-09-30T10:45:20.834Z,17.50
2018-09-30T10:50:24.546Z,17.70
2018-09-30T10:55:28.341Z,17.80
2018-09-30T11:00:31.939Z,17.90
2018-09-30T11:05:35.648Z,18.10
2018-09-30T11:10:39.359Z,18.30
2018-09-30T11:15:43.061Z,18.40
2018-09-30T11:20:46.771Z,18.60
2018-09-30T11:25:50.474Z,18.70
2018-09-30T11:30:54.210Z,18.80
2018-09-30T11:35:57.922Z,18.90
2018-09-30T11:41:01.686Z,19.10
2018-09-30T11:46:05.347Z,19.20
2018-09-30T11:51:09.091Z,19.20
2018-09-30T11:56:12.782Z,19.30
2018-09-30T12:01:16.560Z,19.40
2018-09-30T12:06:20.218Z,19.60
2018-09-30T12:11:24.115Z,19.60
2018-09-30T12:16:27.876Z,19.60
2018-09-30T12:21:31.566Z,19.70
2018-09-30T12:26:35.250Z,19.70
2018-09-30T12:31:38.967Z,19.80
2018-09-30T12:36:42.698Z,19.80
2018-09-30T12:41:46.427Z,19.90
2018-09-30T12:46:50.143Z,20.00
2018-09-30T12:51:53.849Z,20.00
2018-09-30T12:56:57.536Z,20.00
2018-09-30T13:02:01.247Z,20.00
2018-09-30T13:07:04.958Z,20.10
2018-09-30T13:12:08.648Z,20.00
2018-09-30T13:17:12.594Z,20.00
2018-09-30T13:22:16.298Z,20.00
2018-09-30T13:27:20.011Z,20.00
2018-09-30T13:32:23.798Z,20.00
2018-09-30T13:37:27.523Z,20.10
2018-09-30T13:42:31.239Z,20.00
2018-09-30T13:47:35.110Z,20.00
2018-09-30T13:52:38.806Z,19.90
2018-09-30T13:57:42.502Z,19.90
2018-09-30T14:02:46.228Z,19.80
2018-09-30T14:07:49.950Z,19.70
2018-09-30T14:12:53.630Z,19.60
2018-09-30T14:17:57.339Z,19.50
2018-09-30T14:23:01.054Z,19.50
2018-09-30T14:28:04.926Z,19.40
2018-09-30T14:33:08.660Z,19.30
2018-09-30T14:38:12.335Z,19.30
2018-09-30T14:43:16.022Z,19.20
2018-09-30T14:48:19.813Z,19.20
2018-09-30T14:53:23.447Z,19.10
2018-09-30T14:58:27.167Z,19.00
2018-09-30T15:03:30.866Z,18.90
2018-09-30T15:08:34.698Z,18.80
2018-09-30T15:13:38.422Z,18.80
2018-09-30T15:18:42.147Z,18.70
2018-09-30T15:23:45.867Z,18.60
2018-09-30T15:28:49.589Z,18.60
2018-09-30T15:33:53.298Z,18.60
2018-09-30T15:38:57.010Z,18.50
2018-09-30T15:44:00.731Z,18.50
2018-09-30T15:49:04.415Z,18.50
2018-09-30T15:54:08.123Z,18.40
2018-09-30T15:59:11.818Z,18.40
2018-09-30T16:04:15.538Z,18.40
2018-09-30T16:09:19.254Z,18.30
2018-09-30T16:14:22.954Z,18.20
2018-09-30T16:19:26.663Z,18.20
2018-09-30T16:24:30.363Z,18.20
2018-09-30T16:29:34.070Z,18.10
2018-09-30T16:34:37.823Z,18.00
2018-09-30T16:39:41.511Z,18.00
2018-09-30T16:44:45.207Z,17.90
2018-09-30T16:49:49.071Z,17.80
2018-09-30T16:54:52.772Z,17.80
2018-09-30T16:59:56.471Z,17.70
2018-09-30T17:05:00.183Z,17.60
2018-09-30T17:10:03.907Z,17.50
2018-09-30T17:15:07.899Z,17.50
2018-09-30T17:20:11.590Z,17.40
2018-09-30T17:25:15.434Z,17.30
2018-09-30T17:30:19.225Z,17.20
2018-09-30T17:35:23.035Z,17.10
2018-09-30T17:40:26.745Z,17.00
2018-09-30T17:45:30.517Z,16.90
2018-09-30T17:50:34.350Z,16.80
2018-09-30T17:55:38.070Z,16.80
2018-09-30T18:00:41.791Z,16.70
2018-09-30T18:05:45.483Z,16.60
2018-09-30T18:10:49.262Z,16.60
2018-09-30T18:15:52.935Z,16.50
2018-09-30T18:20:56.769Z,16.40
2018-09-30T18:26:00.566Z,16.40
2018-09-30T18:31:04.393Z,16.30
2018-09-30T18:36:08.220Z,16.30
2018-09-30T18:41:12.047Z,16.20
2018-09-30T18:46:15.859Z,16.20
2018-09-30T18:51:19.673Z,16.10
2018-09-30T18:56:23.452Z,16.10
2018-09-30T19:01:27.122Z,16.10
2018-09-30T19:06:30.943Z,16.00
2018-09-30T19:11:34.766Z,16.00
2018-09-30T19:16:38.596Z,15.90
2018-09-30T19:21:42.394Z,15.80
2018-09-30T19:26:49.257Z,15.80
2018-09-30T19:31:53.043Z,15.80
2018-09-30T19:36:56.838Z,15.70
2018-09-30T19:42:00.570Z,15.70
2018-09-30T19:47:04.303Z,15.70
2018-09-30T19:52:08.370Z,15.60
2018-09-30T19:57:43.238Z,15.60
2018-09-30T20:02:46.974Z,15.50
2018-09-30T20:07:50.710Z,15.40
2018-09-30T20:12:54.438Z,15.40
2018-09-30T20:17:58.186Z,15.40
2018-09-30T20:23:01.982Z,15.40
2018-09-30T20:28:05.710Z,15.40
2018-09-30T20:33:09.435Z,15.30
2018-09-30T20:38:14.135Z,15.30
2018-09-30T20:43:17.977Z,15.20
2018-09-30T20:48:21.710Z,15.20
2018-09-30T20:53:25.442Z,15.20
2018-09-30T20:58:29.158Z,15.20
2018-09-30T21:03:33.554Z,15.20
2018-09-30T21:08:37.362Z,15.10
2018-09-30T21:13:41.099Z,15.10
2018-09-30T21:18:45.025Z,15.10
2018-09-30T21:23:48.680Z,15.00
2018-09-30T21:28:52.390Z,15.00
2018-09-30T21:33:56.094Z,14.90
2018-09-30T21:38:59.795Z,14.80
2018-09-30T21:44:03.763Z,14.80
2018-09-30T21:49:07.600Z,14.70
2018-09-30T21:54:11.174Z,14.70
2018-09-30T21:59:15.674Z,14.60
2018-09-30T22:04:19.470Z,14.60
2018-09-30T22:09:23.178Z,14.60
2018-09-30T22:14:26.909Z,14.50
2018-09-30T22:19:30.647Z,14.50
2018-09-30T22:24:34.446Z,14.40
2018-09-30T22:29:38.166Z,14.40
2018-09-30T22:34:41.895Z,14.40
2018-09-30T22:39:45.651Z,14.30
2018-09-30T22:44:49.354Z,14.30
2018-09-30T22:49:53.170Z,14.20
2018-09-30T22:54:56.880Z,14.20
2018-09-30T23:00:00.594Z,14.20
2018-09-30T23:05:04.824Z,14.20
2018-09-30T23:10:10.447Z,14.10
2018-09-30T23:15:14.127Z,14.10
2018-09-30T23:20:18.604Z,14.10
2018-09-30T23:25:22.295Z,14.10
2018-09-30T23:30:25.992Z,14.10
2018-09-30T23:35:29.694Z,14.00
2018-09-30T23:40:33.387Z,14.00
2018-09-30T23:45:37.170Z,14.00
2018-09-30T23:50:40.886Z,14.00
2018-09-30T23:55:44.627Z,14.00
